Time,TemperatureF,DewpointF,PressureIn,WindDirection,WindDirectionDegrees,WindSpeedMPH,WindSpeedGustMPH,Humidity,HourlyPrecipIn,Conditions,Clouds,dailyrainin,SoftwareType,DateUTC
2013-02-19 00:00:00,16.4,11.6,30.11,NNW,339,0.0,14.0,81,0.00,,,0.00,Wunderground v.1.13,2013-02-19 07:00:00,
2013-02-19 00:05:00,16.2,11.4,30.11,NNW,339,0.0,14.0,81,0.00,,,0.00,Wunderground v.1.13,2013-02-19 07:05:00,
2013-02-19 00:15:00,15.9,11.1,30.11,NNW,339,0.0,14.0,81,0.00,,,0.00,Wunderground v.1.13,2013-02-19 07:15:00,
2013-02-19 00:20:00,15.6,10.8,30.11,NNW,339,0.0,14.0,81,0.00,,,0.00,Wunderground v.1.13,2013-02-19 07:20:00,
2013-02-19 00:25:00,15.6,10.8,30.11,NNW,339,0.0,14.0,81,0.00,,,0.00,Wunderground v.1.13,2013-02-19 07:25:00,
2013-02-19 00:29:00,15.6,10.8,30.11,NNW,339,0.0,14.0,81,0.00,,,0.00,Wunderground v.1.13,2013-02-19 07:29:00,
2013-02-19 00:35:00,15.4,10.6,30.11,NNW,339,0.0,14.0,81,0.00,,,0.00,Wunderground v.1.13,2013-02-19 07:35:00,
2013-02-19 00:40:00,15.4,10.9,30.11,NNW,339,0.0,14.0,82,0.00,,,0.00,Wunderground v.1.13,2013-02-19 07:40:00,
2013-02-19 00:45:00,15.7,11.5,30.11,NNW,339,0.0,14.0,83,0.00,,,0.00,Wunderground v.1.13,2013-02-19 07:45:00,
2013-02-19 00:50:00,16.4,12.1,30.12,NNW,339,0.0,14.0,83,0.00,,,0.00,Wunderground v.1.13,2013-02-19 07:50:00,
2013-02-19 00:55:00,16.9,12.6,30.12,NNW,339,0.0,14.0,83,0.00,,,0.00,Wunderground v.1.13,2013-02-19 07:55:00,
2013-02-19 00:59:00,16.9,12.6,30.12,NNW,339,0.0,14.0,83,0.00,,,0.00,Wunderground v.1.13,2013-02-19 07:59:00,
2013-02-19 01:05:00,17.0,12.7,30.12,NNW,339,0.0,14.0,83,0.00,,,0.00,Wunderground v.1.13,2013-02-19 08:05:00,
2013-02-19 01:10:00,17.2,12.9,30.12,NNW,339,0.0,14.0,83,0.00,,,0.00,Wunderground v.1.13,2013-02-19 08:10:00,
2013-02-19 01:15:00,17.5,13.2,30.12,NNW,339,0.0,14.0,83,0.00,,,0.00,Wunderground v.1.13,2013-02-19 08:15:00,
2013-02-19 01:20:00,17.7,13.4,30.12,NNW,339,0.0,14.0,83,0.00,,,0.00,Wunderground v.1.13,2013-02-19 08:20:00,
2013-02-19 01:25:00,18.1,14.4,30.12,NNW,339,0.0,14.0,85,0.00,,,0.00,Wunderground v.1.13,2013-02-19 08:25:00,
2013-02-19 01:30:00,18.6,14.6,30.12,NNW,339,0.0,14.0,84,0.00,,,0.00,Wunderground v.1.13,2013-02-19 08:30:00,
2013-02-19 01:35:00,18.1,13.8,30.13,NNW,339,0.0,14.0,83,0.00,,,0.00,Wunderground v.1.13,2013-02-19 08:35:00,
2013-02-19 01:39:00,17.8,13.5,30.13,NNW,339,0.0,14.0,83,0.00,,,0.00,Wunderground v.1.13,2013-02-19 08:39:00,
2013-02-19 01:45:00,17.7,13.4,30.13,NNW,339,0.0,14.0,83,0.00,,,0.00,Wunderground v.1.13,2013-02-19 08:45:00,
2013-02-19 01:50:00,17.3,13.0,30.13,NNW,339,0.0,14.0,83,0.00,,,0.00,Wunderground v.1.13,2013-02-19 08:50:00,
2013-02-19 01:55:00,17.0,12.7,30.13,NNW,339,0.0,14.0,83,0.00,,,0.00,Wunderground v.1.13,2013-02-19 08:55:00,
2013-02-19 02:00:00,16.7,12.4,30.13,NNW,339,0.0,14.0,83,0.00,,,0.00,Wunderground v.1.13,2013-02-19 09:00:00,
2013-02-19 02:05:00,16.5,12.2,30.13,NNW,339,0.0,14.0,83,0.00,,,0.00,Wunderground v.1.13,2013-02-19 09:05:00,
2013-02-19 02:10:00,16.7,12.7,30.13,NNW,339,0.0,14.0,84,0.00,,,0.00,Wunderground v.1.13,2013-02-19 09:10:00,
2013-02-19 02:15:00,16.5,12.2,30.13,NNW,339,0.0,14.0,83,0.00,,,0.00,Wunderground v.1.13,2013-02-19 09:15:00,
2013-02-19 02:20:00,16.2,11.9,30.14,NNW,339,0.0,14.0,83,0.00,,,0.00,Wunderground v.1.13,2013-02-19 09:20:00,
2013-02-19 02:29:00,15.4,11.2,30.14,NNW,339,0.0,14.0,83,0.00,,,0.00,Wunderground v.1.13,2013-02-19 09:29:00,
2013-02-19 02:34:00,15.4,11.2,30.15,NNW,339,0.0,14.0,83,0.00,,,0.00,Wunderground v.1.13,2013-02-19 09:34:00,
2013-02-19 02:39:00,15.9,12.2,30.15,NNW,339,0.0,14.0,85,0.00,,,0.00,Wunderground v.1.13,2013-02-19 09:39:00,
2013-02-19 02:45:00,16.4,12.7,30.15,NNW,339,0.0,14.0,85,0.00,,,0.00,Wunderground v.1.13,2013-02-19 09:45:00,
2013-02-19 02:50:00,16.9,13.2,30.16,NNW,339,0.0,14.0,85,0.00,,,0.00,Wunderground v.1.13,2013-02-19 09:50:00,
2013-02-19 02:55:00,16.7,12.7,30.16,NNW,339,0.0,14.0,84,0.00,,,0.00,Wunderground v.1.13,2013-02-19 09:55:00,
2013-02-19 03:00:00,16.5,12.5,30.16,NNW,339,0.0,14.0,84,0.00,,,0.00,Wunderground v.1.13,2013-02-19 10:00:00,
2013-02-19 03:05:00,16.4,12.4,30.16,NNW,339,0.0,14.0,84,0.00,,,0.00,Wunderground v.1.13,2013-02-19 10:05:00,
2013-02-19 03:10:00,16.1,12.1,30.16,NNW,339,0.0,14.0,84,0.00,,,0.00,Wunderground v.1.13,2013-02-19 10:10:00,
2013-02-19 03:15:00,15.7,11.7,30.16,NNW,339,0.0,14.0,84,0.00,,,0.00,Wunderground v.1.13,2013-02-19 10:15:00,
2013-02-19 03:20:00,15.4,11.4,30.15,NNW,339,0.0,14.0,84,0.00,,,0.00,Wunderground v.1.13,2013-02-19 10:20:00,
2013-02-19 03:24:00,15.2,11.2,30.15,NNW,339,0.0,14.0,84,0.00,,,0.00,Wunderground v.1.13,2013-02-19 10:24:00,
2013-02-19 03:30:00,14.9,10.7,30.15,NNW,339,0.0,14.0,83,0.00,,,0.00,Wunderground v.1.13,2013-02-19 10:30:00,
2013-02-19 03:35:00,14.6,10.4,30.16,NNW,339,0.0,14.0,83,0.00,,,0.00,Wunderground v.1.13,2013-02-19 10:35:00,
2013-02-19 03:40:00,14.3,10.1,30.16,NNW,339,0.0,14.0,83,0.00,,,0.00,Wunderground v.1.13,2013-02-19 10:40:00,
2013-02-19 03:45:00,14.0,9.8,30.16,NNW,339,0.0,14.0,83,0.00,,,0.00,Wunderground v.1.13,2013-02-19 10:45:00,
2013-02-19 03:49:00,13.8,9.6,30.16,NNW,339,0.0,14.0,83,0.00,,,0.00,Wunderground v.1.13,2013-02-19 10:49:00,
2013-02-19 03:55:00,13.8,9.6,30.16,NNW,339,0.0,14.0,83,0.00,,,0.00,Wunderground v.1.13,2013-02-19 10:55:00,
2013-02-19 04:00:00,13.8,9.6,30.16,NNW,339,0.0,14.0,83,0.00,,,0.00,Wunderground v.1.13,2013-02-19 11:00:00,
2013-02-19 04:05:00,13.8,9.6,30.16,NNW,339,0.0,14.0,83,0.00,,,0.00,Wunderground v.1.13,2013-02-19 11:05:00,
2013-02-19 04:10:00,13.6,9.4,30.16,NNW,339,0.0,14.0,83,0.00,,,0.00,Wunderground v.1.13,2013-02-19 11:10:00,
2013-02-19 04:15:00,13.6,9.4,30.16,NNW,339,0.0,14.0,83,0.00,,,0.00,Wunderground v.1.13,2013-02-19 11:15:00,
2013-02-19 04:25:00,14.0,10.1,30.16,NNW,339,0.0,14.0,84,0.00,,,0.00,Wunderground v.1.13,2013-02-19 11:25:00,
2013-02-19 04:30:00,14.3,10.4,30.16,NNW,339,0.0,14.0,84,0.00,,,0.00,Wunderground v.1.13,2013-02-19 11:30:00,
2013-02-19 04:35:00,14.6,10.9,30.16,NNW,339,0.0,14.0,85,0.00,,,0.00,Wunderground v.1.13,2013-02-19 11:35:00,
2013-02-19 04:40:00,15.1,11.1,30.16,NNW,339,0.0,14.0,84,0.00,,,0.00,Wunderground v.1.13,2013-02-19 11:40:00,
2013-02-19 04:45:00,15.4,11.4,30.16,NNW,339,0.0,14.0,84,0.00,,,0.00,Wunderground v.1.13,2013-02-19 11:45:00,
2013-02-19 04:55:00,15.6,11.6,30.17,NNW,339,0.0,14.0,84,0.00,,,0.00,Wunderground v.1.13,2013-02-19 11:55:00,
2013-02-19 05:00:00,15.6,11.6,30.17,NNW,339,0.0,14.0,84,0.00,,,0.00,Wunderground v.1.13,2013-02-19 12:00:00,
2013-02-19 05:05:00,15.7,11.7,30.17,NNW,339,0.0,14.0,84,0.00,,,0.00,Wunderground v.1.13,2013-02-19 12:05:00,
2013-02-19 05:10:00,15.7,11.7,30.17,NNW,339,0.0,14.0,84,0.00,,,0.00,Wunderground v.1.13,2013-02-19 12:10:00,
2013-02-19 05:20:00,15.4,11.4,30.18,NNW,339,0.0,14.0,84,0.00,,,0.00,Wunderground v.1.13,2013-02-19 12:20:00,
2013-02-19 05:25:00,15.1,10.9,30.18,NNW,339,0.0,14.0,83,0.00,,,0.00,Wunderground v.1.13,2013-02-19 12:25:00,
2013-02-19 05:30:00,14.8,10.6,30.18,NNW,339,0.0,14.0,83,0.00,,,0.00,Wunderground v.1.13,2013-02-19 12:30:00,
2013-02-19 05:35:00,14.4,10.2,30.17,NNW,339,0.0,14.0,83,0.00,,,0.00,Wunderground v.1.13,2013-02-19 12:35:00,
2013-02-19 05:45:00,14.0,9.8,30.17,NNW,339,0.0,14.0,83,0.00,,,0.00,Wunderground v.1.13,2013-02-19 12:45:00,
2013-02-19 05:50:00,14.0,9.8,30.18,NNW,339,0.0,14.0,83,0.00,,,0.00,Wunderground v.1.13,2013-02-19 12:50:00,
2013-02-19 05:54:00,13.8,9.6,30.18,NNW,339,0.0,14.0,83,0.00,,,0.00,Wunderground v.1.13,2013-02-19 12:54:00,
2013-02-19 05:59:00,13.8,9.6,30.18,NNW,339,0.0,14.0,83,0.00,,,0.00,Wunderground v.1.13,2013-02-19 12:59:00,
2013-02-19 06:04:00,13.6,9.1,30.18,NNW,339,0.0,14.0,82,0.00,,,0.00,Wunderground v.1.13,2013-02-19 13:04:00,
2013-02-19 06:09:00,13.5,9.0,30.18,NNW,339,0.0,14.0,82,0.00,,,0.00,Wunderground v.1.13,2013-02-19 13:09:00,
2013-02-19 06:14:00,13.5,9.0,30.18,NNW,339,0.0,14.0,82,0.00,,,0.00,Wunderground v.1.13,2013-02-19 13:14:00,
2013-02-19 06:19:00,13.5,9.3,30.19,NNW,339,0.0,14.0,83,0.00,,,0.00,Wunderground v.1.13,2013-02-19 13:19:00,
2013-02-19 06:25:00,13.3,8.8,30.19,NNW,339,0.0,14.0,82,0.00,,,0.00,Wunderground v.1.13,2013-02-19 13:25:00,
2013-02-19 06:35:00,13.1,8.6,30.19,NNW,339,0.0,14.0,82,0.00,,,0.00,Wunderground v.1.13,2013-02-19 13:35:00,
2013-02-19 06:39:00,13.1,8.6,30.19,NNW,339,0.0,14.0,82,0.00,,,0.00,Wunderground v.1.13,2013-02-19 13:39:00,
2013-02-19 06:44:00,12.9,8.7,30.19,NNW,339,0.0,14.0,83,0.00,,,0.00,Wunderground v.1.13,2013-02-19 13:44:00,
2013-02-19 06:49:00,12.9,8.7,30.19,NNW,339,0.0,14.0,83,0.00,,,0.00,Wunderground v.1.13,2013-02-19 13:49:00,
2013-02-19 06:54:00,12.9,8.7,30.19,NNW,339,0.0,14.0,83,0.00,,,0.00,Wunderground v.1.13,2013-02-19 13:54:00,
2013-02-19 07:00:00,12.9,8.7,30.19,NNW,339,0.0,14.0,83,0.00,,,0.00,Wunderground v.1.13,2013-02-19 14:00:00,
2013-02-19 07:04:00,12.9,8.7,30.20,NNW,339,0.0,14.0,83,0.00,,,0.00,Wunderground v.1.13,2013-02-19 14:04:00,
2013-02-19 07:10:00,12.9,8.7,30.20,NNW,339,0.0,14.0,83,0.00,,,0.00,Wunderground v.1.13,2013-02-19 14:10:00,
2013-02-19 07:15:00,13.5,9.6,30.20,NNW,339,0.0,14.0,84,0.00,,,0.00,Wunderground v.1.13,2013-02-19 14:15:00,
2013-02-19 07:20:00,13.8,9.9,30.21,NNW,339,0.0,14.0,84,0.00,,,0.00,Wunderground v.1.13,2013-02-19 14:20:00,
2013-02-19 07:25:00,14.4,10.7,30.21,NNW,339,0.0,14.0,85,0.00,,,0.00,Wunderground v.1.13,2013-02-19 14:25:00,
2013-02-19 07:30:00,14.9,11.2,30.21,NNW,339,0.0,14.0,85,0.00,,,0.00,Wunderground v.1.13,2013-02-19 14:30:00,
2013-02-19 07:35:00,15.4,11.7,30.21,NNW,339,0.0,14.0,85,0.00,,,0.00,Wunderground v.1.13,2013-02-19 14:35:00,
2013-02-19 07:39:00,15.9,12.2,30.21,NNW,339,0.0,14.0,85,0.00,,,0.00,Wunderground v.1.13,2013-02-19 14:39:00,
2013-02-19 07:44:00,17.0,13.5,30.21,NNW,339,0.0,14.0,86,0.00,,,0.00,Wunderground v.1.13,2013-02-19 14:44:00,
2013-02-19 07:50:00,18.3,14.5,30.21,NNW,339,0.0,14.0,85,0.00,,,0.00,Wunderground v.1.13,2013-02-19 14:50:00,
2013-02-19 07:55:00,19.1,15.1,30.21,NNW,339,0.0,14.0,84,0.00,,,0.00,Wunderground v.1.13,2013-02-19 14:55:00,
2013-02-19 08:05:00,20.5,15.9,30.22,NNW,341,0.0,14.0,82,0.00,,,0.00,Wunderground v.1.13,2013-02-19 15:05:00,
2013-02-19 08:10:00,21.0,15.8,30.22,NNW,344,0.0,14.0,80,0.00,,,0.00,Wunderground v.1.13,2013-02-19 15:10:00,
2013-02-19 08:14:00,21.6,16.1,30.22,NNW,345,0.0,14.0,79,0.00,,,0.00,Wunderground v.1.13,2013-02-19 15:14:00,
2013-02-19 08:20:00,21.8,15.7,30.22,East,94,0.0,14.0,77,0.00,,,0.00,Wunderground v.1.13,2013-02-19 15:20:00,
2013-02-19 08:25:00,21.9,15.8,30.22,ESE,107,0.0,14.0,77,0.00,,,0.00,Wunderground v.1.13,2013-02-19 15:25:00,
2013-02-19 08:30:00,22.2,15.8,30.22,ESE,107,1.0,1.0,76,0.00,,,0.00,Wunderground v.1.13,2013-02-19 15:30:00,
2013-02-19 08:40:00,23.0,15.9,30.23,East,82,0.0,14.0,74,0.00,,,0.00,Wunderground v.1.13,2013-02-19 15:40:00,
2013-02-19 08:45:00,23.6,16.2,30.23,East,80,0.0,14.0,73,0.00,,,0.00,Wunderground v.1.13,2013-02-19 15:45:00,
2013-02-19 08:55:00,24.2,16.1,30.23,SE,126,0.0,14.0,71,0.00,,,0.00,Wunderground v.1.13,2013-02-19 15:55:00,
2013-02-19 09:00:00,24.4,16.0,30.23,East,95,1.0,1.0,70,0.00,,,0.00,Wunderground v.1.13,2013-02-19 16:00:00,
2013-02-19 09:05:00,24.2,15.5,30.22,East,80,1.0,1.0,69,0.00,,,0.00,Wunderground v.1.13,2013-02-19 16:05:00,
2013-02-19 09:10:00,24.7,16.0,30.22,SE,132,1.0,1.0,69,0.00,,,0.00,Wunderground v.1.13,2013-02-19 16:10:00,
2013-02-19 09:14:00,25.3,16.5,30.22,SE,133,1.0,1.0,69,0.00,,,0.00,Wunderground v.1.13,2013-02-19 16:14:00,
2013-02-19 09:20:00,25.3,15.9,30.23,SE,140,1.0,14.0,67,0.00,,,0.00,Wunderground v.1.13,2013-02-19 16:20:00,
2013-02-19 09:25:00,25.0,15.6,30.23,SE,140,3.0,3.0,67,0.00,,,0.00,Wunderground v.1.13,2013-02-19 16:25:00,
2013-02-19 09:29:00,25.3,15.9,30.23,SE,141,3.0,3.0,67,0.00,,,0.00,Wunderground v.1.13,2013-02-19 16:29:00,
2013-02-19 09:35:00,25.4,15.6,30.23,SE,138,2.0,14.0,66,0.00,,,0.00,Wunderground v.1.13,2013-02-19 16:35:00,
2013-02-19 09:40:00,25.8,16.0,30.23,SE,134,1.0,1.0,66,0.00,,,0.00,Wunderground v.1.13,2013-02-19 16:40:00,
2013-02-19 09:45:00,26.3,16.1,30.23,SE,140,1.0,1.0,65,0.00,,,0.00,Wunderground v.1.13,2013-02-19 16:45:00,
2013-02-19 09:55:00,26.9,16.3,30.22,SE,142,1.0,14.0,64,0.00,,,0.00,Wunderground v.1.13,2013-02-19 16:55:00,
2013-02-19 10:00:00,27.0,16.4,30.22,SE,135,1.0,1.0,64,0.00,,,0.00,Wunderground v.1.13,2013-02-19 17:00:00,
2013-02-19 10:05:00,27.2,16.3,30.22,SE,138,0.0,14.0,63,0.00,,,0.00,Wunderground v.1.13,2013-02-19 17:05:00,
2013-02-19 10:10:00,27.3,16.7,30.22,SE,134,0.0,14.0,64,0.00,,,0.00,Wunderground v.1.13,2013-02-19 17:10:00,
2013-02-19 10:19:00,28.1,17.1,30.22,SE,137,1.0,1.0,63,0.00,,,0.00,Wunderground v.1.13,2013-02-19 17:19:00,
2013-02-19 10:24:00,29.0,17.6,30.22,SE,139,1.0,14.0,62,0.00,,,0.00,Wunderground v.1.13,2013-02-19 17:24:00,
2013-02-19 10:29:00,29.5,17.3,30.22,SSE,165,1.0,14.0,60,0.00,,,0.00,Wunderground v.1.13,2013-02-19 17:29:00,
2013-02-19 10:34:00,29.0,17.2,30.22,SE,144,1.0,1.0,61,0.00,,,0.00,Wunderground v.1.13,2013-02-19 17:34:00,
2013-02-19 10:39:00,28.8,17.4,30.22,SE,135,2.0,2.0,62,0.00,,,0.00,Wunderground v.1.13,2013-02-19 17:39:00,
2013-02-19 10:44:00,29.0,17.2,30.22,SSE,148,2.0,2.0,61,0.00,,,0.00,Wunderground v.1.13,2013-02-19 17:44:00,
2013-02-19 10:50:00,29.5,17.7,30.21,SSE,167,1.0,1.0,61,0.00,,,0.00,Wunderground v.1.13,2013-02-19 17:50:00,
2013-02-19 10:55:00,29.7,17.5,30.21,SSE,159,2.0,2.0,60,0.00,,,0.00,Wunderground v.1.13,2013-02-19 17:55:00,
2013-02-19 11:00:00,29.8,17.2,30.21,South,190,3.0,14.0,59,0.00,,,0.00,Wunderground v.1.13,2013-02-19 18:00:00,
2013-02-19 11:05:00,30.1,17.5,30.21,SSE,158,4.0,4.0,59,0.00,,,0.00,Wunderground v.1.13,2013-02-19 18:05:00,
2013-02-19 11:10:00,31.0,17.9,30.21,ESE,111,3.0,3.0,58,0.00,,,0.00,Wunderground v.1.13,2013-02-19 18:10:00,
2013-02-19 11:14:00,31.6,18.1,30.21,SSE,153,1.0,14.0,57,0.00,,,0.00,Wunderground v.1.13,2013-02-19 18:14:00,
2013-02-19 11:24:00,32.5,18.5,30.20,SSE,152,1.0,14.0,56,0.00,,,0.00,Wunderground v.1.13,2013-02-19 18:24:00,
2013-02-19 11:29:00,32.8,18.0,30.20,SE,140,1.0,14.0,54,0.00,,,0.00,Wunderground v.1.13,2013-02-19 18:29:00,
2013-02-19 11:34:00,33.2,18.3,30.19,SE,146,2.0,2.0,54,0.00,,,0.00,Wunderground v.1.13,2013-02-19 18:34:00,
2013-02-19 11:39:00,33.4,18.1,30.19,SE,142,2.0,2.0,53,0.00,,,0.00,Wunderground v.1.13,2013-02-19 18:39:00,
2013-02-19 11:45:00,33.7,18.4,30.19,SE,130,2.0,2.0,53,0.00,,,0.00,Wunderground v.1.13,2013-02-19 18:45:00,
2013-02-19 11:50:00,33.7,18.4,30.18,SSE,159,3.0,3.0,53,0.00,,,0.00,Wunderground v.1.13,2013-02-19 18:50:00,
2013-02-19 11:55:00,33.7,17.9,30.18,SSE,149,4.0,14.0,52,0.00,,,0.00,Wunderground v.1.13,2013-02-19 18:55:00,
2013-02-19 12:00:00,33.7,17.9,30.18,SSE,147,4.0,14.0,52,0.00,,,0.00,Wunderground v.1.13,2013-02-19 19:00:00,
2013-02-19 12:05:00,34.3,18.5,30.17,SSE,148,3.0,14.0,52,0.00,,,0.00,Wunderground v.1.13,2013-02-19 19:05:00,
2013-02-19 12:10:00,34.9,18.6,30.17,ESE,121,3.0,3.0,51,0.00,,,0.00,Wunderground v.1.13,2013-02-19 19:10:00,
2013-02-19 12:15:00,35.2,17.9,30.17,SE,144,3.0,14.0,49,0.00,,,0.00,Wunderground v.1.13,2013-02-19 19:15:00,
2013-02-19 12:20:00,35.2,18.4,30.16,SSE,150,3.0,14.0,50,0.00,,,0.00,Wunderground v.1.13,2013-02-19 19:20:00,
2013-02-19 12:25:00,35.8,19.0,30.16,SE,134,3.0,3.0,50,0.00,,,0.00,Wunderground v.1.13,2013-02-19 19:25:00,
2013-02-19 12:30:00,36.3,18.5,30.16,SSE,153,2.0,14.0,48,0.00,,,0.00,Wunderground v.1.13,2013-02-19 19:30:00,
2013-02-19 12:39:00,35.9,18.1,30.15,SE,142,4.0,4.0,48,0.00,,,0.00,Wunderground v.1.13,2013-02-19 19:39:00,
2013-02-19 12:44:00,36.2,18.4,30.15,SE,135,4.0,4.0,48,0.00,,,0.00,Wunderground v.1.13,2013-02-19 19:44:00,
2013-02-19 12:49:00,36.5,18.2,30.14,ESE,106,3.0,3.0,47,0.00,,,0.00,Wunderground v.1.13,2013-02-19 19:49:00,
2013-02-19 12:54:00,36.9,18.5,30.14,SSE,155,3.0,14.0,47,0.00,,,0.00,Wunderground v.1.13,2013-02-19 19:54:00,
2013-02-19 12:59:00,36.6,18.2,30.14,SSE,159,3.0,3.0,47,0.00,,,0.00,Wunderground v.1.13,2013-02-19 19:59:00,
2013-02-19 13:05:00,37.0,18.6,30.13,SSE,157,4.0,4.0,47,0.00,,,0.00,Wunderground v.1.13,2013-02-19 20:05:00,
2013-02-19 13:10:00,36.9,18.0,30.13,SSE,150,5.0,5.0,46,0.00,,,0.00,Wunderground v.1.13,2013-02-19 20:10:00,
2013-02-19 13:15:00,37.0,18.1,30.13,SE,137,5.0,14.0,46,0.00,,,0.00,Wunderground v.1.13,2013-02-19 20:15:00,
2013-02-19 13:25:00,37.6,18.7,30.12,SE,138,4.0,14.0,46,0.00,,,0.00,Wunderground v.1.13,2013-02-19 20:25:00,
2013-02-19 13:30:00,37.9,18.9,30.12,SSE,149,4.0,14.0,46,0.00,,,0.00,Wunderground v.1.13,2013-02-19 20:30:00,
2013-02-19 13:35:00,38.2,18.7,30.11,SSE,159,4.0,4.0,45,0.00,,,0.00,Wunderground v.1.13,2013-02-19 20:35:00,
2013-02-19 13:40:00,38.0,18.5,30.11,ESE,108,4.0,4.0,45,0.00,,,0.00,Wunderground v.1.13,2013-02-19 20:40:00,
2013-02-19 13:44:00,38.2,18.7,30.11,SSE,157,3.0,3.0,45,0.00,,,0.00,Wunderground v.1.13,2013-02-19 20:44:00,
2013-02-19 13:49:00,37.9,18.4,30.10,SSE,159,3.0,14.0,45,0.00,,,0.00,Wunderground v.1.13,2013-02-19 20:49:00,
2013-02-19 13:54:00,38.2,18.7,30.10,SE,132,4.0,4.0,45,0.00,,,0.00,Wunderground v.1.13,2013-02-19 20:54:00,
2013-02-19 14:00:00,38.6,18.5,30.10,SE,130,4.0,14.0,44,0.00,,,0.00,Wunderground v.1.13,2013-02-19 21:00:00,
2013-02-19 14:05:00,38.8,18.7,30.10,SSE,152,4.0,14.0,44,0.00,,,0.00,Wunderground v.1.13,2013-02-19 21:05:00,
2013-02-19 14:10:00,38.9,18.8,30.10,SE,133,4.0,14.0,44,0.00,,,0.00,Wunderground v.1.13,2013-02-19 21:10:00,
2013-02-19 14:14:00,38.8,18.2,30.10,SE,139,5.0,14.0,43,0.00,,,0.00,Wunderground v.1.13,2013-02-19 21:14:00,
2013-02-19 14:19:00,38.6,18.0,30.09,SSE,148,4.0,4.0,43,0.00,,,0.00,Wunderground v.1.13,2013-02-19 21:19:00,
2013-02-19 14:24:00,38.3,18.3,30.09,SE,143,5.0,5.0,44,0.00,,,0.00,Wunderground v.1.13,2013-02-19 21:24:00,
2013-02-19 14:30:00,38.5,18.4,30.09,SE,136,4.0,16.0,44,0.00,,,0.00,Wunderground v.1.13,2013-02-19 21:30:00,
2013-02-19 14:35:00,38.3,18.3,30.09,SSE,163,3.0,14.0,44,0.00,,,0.00,Wunderground v.1.13,2013-02-19 21:35:00,
2013-02-19 14:40:00,38.6,18.0,30.09,SSE,153,6.0,6.0,43,0.00,,,0.00,Wunderground v.1.13,2013-02-19 21:40:00,
2013-02-19 14:45:00,39.1,17.9,30.09,SE,137,6.0,14.0,42,0.00,,,0.00,Wunderground v.1.13,2013-02-19 21:45:00,
2013-02-19 14:50:00,38.8,17.6,30.09,SSE,163,6.0,14.0,42,0.00,,,0.00,Wunderground v.1.13,2013-02-19 21:50:00,
2013-02-19 14:55:00,38.5,17.9,30.09,SSE,153,7.0,14.0,43,0.00,,,0.00,Wunderground v.1.13,2013-02-19 21:55:00,
2013-02-19 15:04:00,38.2,18.2,30.09,SE,144,8.0,14.0,44,0.00,,,0.00,Wunderground v.1.13,2013-02-19 22:04:00,
2013-02-19 15:10:00,38.8,18.2,30.09,SE,141,8.0,14.0,43,0.00,,,0.00,Wunderground v.1.13,2013-02-19 22:10:00,
2013-02-19 15:19:00,38.9,17.7,30.09,South,169,7.0,7.0,42,0.00,,,0.00,Wunderground v.1.13,2013-02-19 22:19:00,
2013-02-19 15:24:00,39.2,17.4,30.09,SSE,153,6.0,6.0,41,0.00,,,0.00,Wunderground v.1.13,2013-02-19 22:24:00,
2013-02-19 15:30:00,39.3,17.5,30.09,SSE,150,6.0,14.0,41,0.00,,,0.00,Wunderground v.1.13,2013-02-19 22:30:00,
2013-02-19 15:35:00,39.6,17.8,30.08,SSE,152,6.0,14.0,41,0.00,,,0.00,Wunderground v.1.13,2013-02-19 22:35:00,
2013-02-19 15:40:00,39.5,17.7,30.08,SE,133,6.0,14.0,41,0.00,,,0.00,Wunderground v.1.13,2013-02-19 22:40:00,
2013-02-19 15:45:00,39.6,17.2,30.08,SE,144,6.0,6.0,40,0.00,,,0.00,Wunderground v.1.13,2013-02-19 22:45:00,
2013-02-19 15:49:00,39.1,16.8,30.08,SE,137,7.0,7.0,40,0.00,,,0.00,Wunderground v.1.13,2013-02-19 22:49:00,
2013-02-19 15:54:00,38.5,16.8,30.08,SSW,194,7.0,7.0,41,0.00,,,0.00,Wunderground v.1.13,2013-02-19 22:54:00,
2013-02-19 16:00:00,38.0,16.9,30.08,SSE,155,6.0,14.0,42,0.00,,,0.00,Wunderground v.1.13,2013-02-19 23:00:00,
2013-02-19 16:05:00,38.2,17.1,30.08,SE,146,6.0,6.0,42,0.00,,,0.00,Wunderground v.1.13,2013-02-19 23:05:00,
2013-02-19 16:14:00,38.6,16.9,30.08,SE,142,7.0,14.0,41,0.00,,,0.00,Wunderground v.1.13,2013-02-19 23:14:00,
2013-02-19 16:19:00,38.2,16.5,30.07,ESE,115,7.0,14.0,41,0.00,,,0.00,Wunderground v.1.13,2013-02-19 23:19:00,
2013-02-19 16:25:00,37.8,16.2,30.07,SSE,167,9.0,9.0,41,0.00,,,0.00,Wunderground v.1.13,2013-02-19 23:25:00,
2013-02-19 16:30:00,37.6,16.5,30.07,SE,138,9.0,14.0,42,0.00,,,0.00,Wunderground v.1.13,2013-02-19 23:30:00,
2013-02-19 16:35:00,37.3,16.3,30.07,SSE,148,8.0,14.0,42,0.00,,,0.00,Wunderground v.1.13,2013-02-19 23:35:00,
2013-02-19 16:40:00,37.2,16.2,30.07,SSE,152,8.0,8.0,42,0.00,,,0.00,Wunderground v.1.13,2013-02-19 23:40:00,
2013-02-19 16:45:00,37.0,16.5,30.07,SSE,168,8.0,8.0,43,0.00,,,0.00,Wunderground v.1.13,2013-02-19 23:45:00,
2013-02-19 16:49:00,36.9,16.5,30.07,SSE,153,6.0,14.0,43,0.00,,,0.00,Wunderground v.1.13,2013-02-19 23:49:00,
2013-02-19 16:54:00,36.5,16.1,30.07,SSE,158,7.0,14.0,43,0.00,,,0.00,Wunderground v.1.13,2013-02-19 23:54:00,
2013-02-19 17:00:00,36.0,16.2,30.07,SE,143,7.0,14.0,44,0.00,,,0.00,Wunderground v.1.13,2013-02-20 00:00:00,
2013-02-19 17:05:00,35.6,16.3,30.07,SE,145,6.0,6.0,45,0.00,,,0.00,Wunderground v.1.13,2013-02-20 00:05:00,
2013-02-19 17:10:00,35.2,16.5,30.07,South,169,5.0,5.0,46,0.00,,,0.00,Wunderground v.1.13,2013-02-20 00:10:00,
2013-02-19 17:15:00,34.9,16.2,30.07,SSE,157,3.0,3.0,46,0.00,,,0.00,Wunderground v.1.13,2013-02-20 00:15:00,
2013-02-19 17:19:00,34.7,16.0,30.07,SE,140,2.0,14.0,46,0.00,,,0.00,Wunderground v.1.13,2013-02-20 00:19:00,
2013-02-19 17:25:00,34.3,16.1,30.07,SSE,150,3.0,3.0,47,0.00,,,0.00,Wunderground v.1.13,2013-02-20 00:25:00,
2013-02-19 17:30:00,33.8,16.2,30.07,SSE,157,2.0,2.0,48,0.00,,,0.00,Wunderground v.1.13,2013-02-20 00:30:00,
2013-02-19 17:34:00,33.2,16.1,30.07,SSE,147,1.0,1.0,49,0.00,,,0.00,Wunderground v.1.13,2013-02-20 00:34:00,
2013-02-19 17:39:00,32.8,15.7,30.07,SSE,151,1.0,14.0,49,0.00,,,0.00,Wunderground v.1.13,2013-02-20 00:39:00,
2013-02-19 17:44:00,32.4,16.3,30.07,SE,140,1.0,1.0,51,0.00,,,0.00,Wunderground v.1.13,2013-02-20 00:44:00,
2013-02-19 17:49:00,31.9,15.8,30.08,SE,144,1.0,14.0,51,0.00,,,0.00,Wunderground v.1.13,2013-02-20 00:49:00,
2013-02-19 17:54:00,31.3,15.7,30.08,SE,140,1.0,1.0,52,0.00,,,0.00,Wunderground v.1.13,2013-02-20 00:54:00,
2013-02-19 18:00:00,30.9,15.8,30.08,SE,134,1.0,1.0,53,0.00,,,0.00,Wunderground v.1.13,2013-02-20 01:00:00,
2013-02-19 18:05:00,30.6,15.5,30.08,SE,133,0.0,14.0,53,0.00,,,0.00,Wunderground v.1.13,2013-02-20 01:05:00,
2013-02-19 18:10:00,30.3,15.2,30.08,SE,137,1.0,1.0,53,0.00,,,0.00,Wunderground v.1.13,2013-02-20 01:10:00,
2013-02-19 18:15:00,29.8,15.2,30.08,SSE,153,1.0,1.0,54,0.00,,,0.00,Wunderground v.1.13,2013-02-20 01:15:00,
2013-02-19 18:20:00,29.5,14.9,30.09,SE,142,1.0,14.0,54,0.00,,,0.00,Wunderground v.1.13,2013-02-20 01:20:00,
2013-02-19 18:25:00,29.3,15.1,30.09,SSE,159,1.0,1.0,55,0.00,,,0.00,Wunderground v.1.13,2013-02-20 01:25:00,
2013-02-19 18:30:00,28.8,15.1,30.09,ESE,103,1.0,1.0,56,0.00,,,0.00,Wunderground v.1.13,2013-02-20 01:30:00,
2013-02-19 18:35:00,28.5,14.8,30.09,SE,132,0.0,14.0,56,0.00,,,0.00,Wunderground v.1.13,2013-02-20 01:35:00,
2013-02-19 18:40:00,28.1,14.8,30.09,SE,142,0.0,14.0,57,0.00,,,0.00,Wunderground v.1.13,2013-02-20 01:40:00,
2013-02-19 18:44:00,27.8,14.5,30.09,SE,137,0.0,14.0,57,0.00,,,0.00,Wunderground v.1.13,2013-02-20 01:44:00,
2013-02-19 18:49:00,27.6,14.7,30.08,East,88,0.0,14.0,58,0.00,,,0.00,Wunderground v.1.13,2013-02-20 01:49:00,
2013-02-19 18:54:00,27.8,14.9,30.08,SSE,150,0.0,14.0,58,0.00,,,0.00,Wunderground v.1.13,2013-02-20 01:54:00,
2013-02-19 19:00:00,27.6,14.7,30.08,SE,136,1.0,1.0,58,0.00,,,0.00,Wunderground v.1.13,2013-02-20 02:00:00,
2013-02-19 19:05:00,27.8,14.9,30.09,East,88,1.0,1.0,58,0.00,,,0.00,Wunderground v.1.13,2013-02-20 02:05:00,
2013-02-19 19:10:00,27.8,14.9,30.09,SE,142,1.0,14.0,58,0.00,,,0.00,Wunderground v.1.13,2013-02-20 02:10:00,
2013-02-19 19:19:00,27.6,14.3,30.09,ESE,123,2.0,14.0,57,0.00,,,0.00,Wunderground v.1.13,2013-02-20 02:19:00,
2013-02-19 19:24:00,27.5,14.2,30.09,SE,137,2.0,14.0,57,0.00,,,0.00,Wunderground v.1.13,2013-02-20 02:24:00,
2013-02-19 19:35:00,27.2,14.4,30.09,SSE,148,2.0,2.0,58,0.00,,,0.00,Wunderground v.1.13,2013-02-20 02:35:00,
2013-02-19 19:40:00,26.9,14.5,30.09,ESE,117,1.0,1.0,59,0.00,,,0.00,Wunderground v.1.13,2013-02-20 02:40:00,
2013-02-19 19:45:00,26.6,14.2,30.09,East,87,0.0,14.0,59,0.00,,,0.00,Wunderground v.1.13,2013-02-20 02:45:00,
2013-02-19 19:50:00,26.4,14.0,30.09,ESE,121,1.0,1.0,59,0.00,,,0.00,Wunderground v.1.13,2013-02-20 02:50:00,
2013-02-19 19:55:00,26.3,13.9,30.09,SSE,162,1.0,1.0,59,0.00,,,0.00,Wunderground v.1.13,2013-02-20 02:55:00,
2013-02-19 20:00:00,26.3,13.9,30.09,East,88,1.0,1.0,59,0.00,,,0.00,Wunderground v.1.13,2013-02-20 03:00:00,
2013-02-19 20:05:00,26.1,13.7,30.09,SE,146,1.0,1.0,59,0.00,,,0.00,Wunderground v.1.13,2013-02-20 03:05:00,
2013-02-19 20:10:00,26.0,13.6,30.09,ESE,111,0.0,14.0,59,0.00,,,0.00,Wunderground v.1.13,2013-02-20 03:10:00,
2013-02-19 20:14:00,25.8,13.4,30.09,SE,144,1.0,1.0,59,0.00,,,0.00,Wunderground v.1.13,2013-02-20 03:14:00,
2013-02-19 20:20:00,25.6,13.2,30.09,ESE,121,1.0,1.0,59,0.00,,,0.00,Wunderground v.1.13,2013-02-20 03:20:00,
2013-02-19 20:25:00,25.4,13.1,30.09,East,95,1.0,14.0,59,0.00,,,0.00,Wunderground v.1.13,2013-02-20 03:25:00,
2013-02-19 20:30:00,25.1,12.8,30.09,SE,138,1.0,14.0,59,0.00,,,0.00,Wunderground v.1.13,2013-02-20 03:30:00,
2013-02-19 20:35:00,25.0,12.7,30.10,SE,141,1.0,14.0,59,0.00,,,0.00,Wunderground v.1.13,2013-02-20 03:35:00,
2013-02-19 20:40:00,24.8,12.5,30.10,SE,137,1.0,14.0,59,0.00,,,0.00,Wunderground v.1.13,2013-02-20 03:40:00,
2013-02-19 20:44:00,24.7,12.0,30.10,SE,125,2.0,2.0,58,0.00,,,0.00,Wunderground v.1.13,2013-02-20 03:44:00,
2013-02-19 20:49:00,24.8,10.9,30.10,SE,127,3.0,14.0,55,0.00,,,0.00,Wunderground v.1.13,2013-02-20 03:49:00,
2013-02-19 20:54:00,25.0,9.8,30.10,SE,139,5.0,5.0,52,0.00,,,0.00,Wunderground v.1.13,2013-02-20 03:54:00,
2013-02-19 20:59:00,25.0,9.0,30.10,SE,126,5.0,14.0,50,0.00,,,0.00,Wunderground v.1.13,2013-02-20 03:59:00,
2013-02-19 21:04:00,24.8,8.8,30.11,SE,144,5.0,14.0,50,0.00,,,0.00,Wunderground v.1.13,2013-02-20 04:04:00,
2013-02-19 21:09:00,24.7,8.2,30.11,SSE,157,6.0,16.0,49,0.00,,,0.00,Wunderground v.1.13,2013-02-20 04:09:00,
2013-02-19 21:15:00,24.5,8.5,30.11,SE,142,6.0,14.0,50,0.00,,,0.00,Wunderground v.1.13,2013-02-20 04:15:00,
2013-02-19 21:19:00,24.2,8.2,30.11,SSE,148,5.0,5.0,50,0.00,,,0.00,Wunderground v.1.13,2013-02-20 04:19:00,
2013-02-19 21:24:00,24.1,8.1,30.11,SSE,147,4.0,14.0,50,0.00,,,0.00,Wunderground v.1.13,2013-02-20 04:24:00,
2013-02-19 21:29:00,23.9,7.5,30.11,East,86,5.0,14.0,49,0.00,,,0.00,Wunderground v.1.13,2013-02-20 04:29:00,
2013-02-19 21:34:00,23.6,7.2,30.11,ESE,120,5.0,5.0,49,0.00,,,0.00,Wunderground v.1.13,2013-02-20 04:34:00,
2013-02-19 21:40:00,23.5,7.1,30.11,SSE,152,4.0,4.0,49,0.00,,,0.00,Wunderground v.1.13,2013-02-20 04:40:00,
2013-02-19 21:45:00,23.3,7.4,30.11,ESE,120,4.0,4.0,50,0.00,,,0.00,Wunderground v.1.13,2013-02-20 04:45:00,
2013-02-19 21:50:00,23.0,7.1,30.11,ESE,115,4.0,4.0,50,0.00,,,0.00,Wunderground v.1.13,2013-02-20 04:50:00,
2013-02-19 21:55:00,23.0,7.1,30.11,SE,142,5.0,14.0,50,0.00,,,0.00,Wunderground v.1.13,2013-02-20 04:55:00,
2013-02-19 22:00:00,22.9,7.0,30.11,SSE,156,5.0,5.0,50,0.00,,,0.00,Wunderground v.1.13,2013-02-20 05:00:00,
2013-02-19 22:05:00,22.7,6.8,30.11,SE,135,5.0,5.0,50,0.00,,,0.00,Wunderground v.1.13,2013-02-20 05:05:00,
2013-02-19 22:09:00,22.5,6.6,30.11,SE,136,5.0,14.0,50,0.00,,,0.00,Wunderground v.1.13,2013-02-20 05:09:00,
2013-02-19 22:14:00,22.4,6.1,30.11,SE,139,4.0,14.0,49,0.00,,,0.00,Wunderground v.1.13,2013-02-20 05:14:00,
2013-02-19 22:20:00,22.4,6.1,30.11,SE,133,6.0,14.0,49,0.00,,,0.00,Wunderground v.1.13,2013-02-20 05:20:00,
2013-02-19 22:25:00,22.2,5.9,30.11,SE,136,5.0,5.0,49,0.00,,,0.00,Wunderground v.1.13,2013-02-20 05:25:00,
2013-02-19 22:30:00,22.1,5.8,30.11,SSE,148,5.0,5.0,49,0.00,,,0.00,Wunderground v.1.13,2013-02-20 05:30:00,
2013-02-19 22:35:00,21.9,6.1,30.11,SE,132,4.0,4.0,50,0.00,,,0.00,Wunderground v.1.13,2013-02-20 05:35:00,
2013-02-19 22:39:00,21.8,5.5,30.11,SSE,147,4.0,14.0,49,0.00,,,0.00,Wunderground v.1.13,2013-02-20 05:39:00,
2013-02-19 22:44:00,21.8,5.5,30.11,SSE,155,4.0,4.0,49,0.00,,,0.00,Wunderground v.1.13,2013-02-20 05:44:00,
2013-02-19 22:50:00,21.6,4.9,30.10,ESE,123,5.0,5.0,48,0.00,,,0.00,Wunderground v.1.13,2013-02-20 05:50:00,
2013-02-19 22:55:00,21.4,4.7,30.10,SSE,147,5.0,5.0,48,0.00,,,0.00,Wunderground v.1.13,2013-02-20 05:55:00,
2013-02-19 23:00:00,21.3,4.6,30.10,ESE,121,5.0,14.0,48,0.00,,,0.00,Wunderground v.1.13,2013-02-20 06:00:00,
2013-02-19 23:04:00,21.1,4.4,30.10,SSE,153,4.0,14.0,48,0.00,,,0.00,Wunderground v.1.13,2013-02-20 06:04:00,
2013-02-19 23:10:00,21.0,4.8,30.10,ESE,111,3.0,14.0,49,0.00,,,0.00,Wunderground v.1.13,2013-02-20 06:10:00,
2013-02-19 23:15:00,20.6,4.4,30.10,ENE,72,3.0,14.0,49,0.00,,,0.00,Wunderground v.1.13,2013-02-20 06:15:00,
2013-02-19 23:19:00,20.5,4.3,30.09,East,92,2.0,2.0,49,0.00,,,0.00,Wunderground v.1.13,2013-02-20 06:19:00,
2013-02-19 23:24:00,20.5,4.3,30.09,SE,140,2.0,2.0,49,0.00,,,0.00,Wunderground v.1.13,2013-02-20 06:24:00,
2013-02-19 23:29:00,20.3,4.2,30.09,SE,130,2.0,2.0,49,0.00,,,0.00,Wunderground v.1.13,2013-02-20 06:29:00,
2013-02-19 23:34:00,20.2,4.1,30.09,ESE,115,3.0,14.0,49,0.00,,,0.00,Wunderground v.1.13,2013-02-20 06:34:00,
2013-02-19 23:39:00,20.0,3.9,30.09,SE,133,3.0,3.0,49,0.00,,,0.00,Wunderground v.1.13,2013-02-20 06:39:00,
2013-02-19 23:44:00,19.9,4.2,30.09,SE,137,3.0,3.0,50,0.00,,,0.00,Wunderground v.1.13,2013-02-20 06:44:00,
2013-02-19 23:49:00,19.7,4.0,30.07,ENE,78,3.0,3.0,50,0.00,,,0.00,Wunderground v.1.13,2013-02-20 06:49:00,
2013-02-19 23:55:00,19.7,3.6,30.07,SE,136,2.0,14.0,49,0.00,,,0.00,Wunderground v.1.13,2013-02-20 06:55:00,